Time;durP1;ratioP1;P1;durP2;ratioP2;P2;SDS_P1;SDS_P2;PMS_P1;PMS_P2;Temp;Humidity;BMP_temperature;BMP_pressure;BME280_temperature;BME280_humidity;BME280_pressure;Samples;Min_cycle;Max_cycle;Signal;HPM_P1;HPM_P2
2022/10/20 00:00:27;;;;;;;5.88;1.88;;;10.60;99.90;;;;;;4858127;29;20298;-75
2022/10/20 00:02:53;;;;;;;;;;;10.50;99.90;;;;;;4842351;29;20029;-75
2022/10/20 00:05:18;;;;;;;5.63;1.75;;;10.50;99.90;;;;;;4841774;29;20368;-75
2022/10/20 00:07:44;;;;;;;;;;;10.50;99.90;;;;;;4846621;29;20034;-75
2022/10/20 00:10:09;;;;;;;6.82;1.95;;;10.50;99.90;;;;;;4864596;29;20005;-76
2022/10/20 00:12:35;;;;;;;;;;;10.40;99.90;;;;;;4848400;29;20034;-75
2022/10/20 00:15:01;;;;;;;4.63;1.80;;;10.50;99.90;;;;;;4848513;29;19912;-76
2022/10/20 00:17:26;;;;;;;5.18;2.25;;;10.40;99.90;;;;;;4864857;29;20038;-76
2022/10/20 00:19:52;;;;;;;;;;;10.30;99.90;;;;;;4848415;29;20511;-75
2022/10/20 00:22:17;;;;;;;3.28;1.38;;;10.30;99.90;;;;;;4847816;29;19908;-76
2022/10/20 00:24:43;;;;;;;;;;;10.30;99.90;;;;;;4847787;29;20069;-76
2022/10/20 00:27:08;;;;;;;4.25;1.73;;;10.30;99.90;;;;;;4847980;29;20258;-75
2022/10/20 00:29:34;;;;;;;8.45;1.40;;;10.30;99.90;;;;;;4848122;29;20029;-75
2022/10/20 00:32:00;;;;;;;;;;;10.30;99.90;;;;;;4848571;29;20044;-76
2022/10/20 00:34:25;;;;;;;8.73;2.47;;;10.30;99.90;;;;;;4848575;29;19912;-76
2022/10/20 00:36:51;;;;;;;;;;;10.30;99.90;;;;;;4848367;29;20420;-75
2022/10/20 00:39:16;;;;;;;4.93;1.90;;;10.20;99.90;;;;;;4847063;29;20032;-75
2022/10/20 00:41:42;;;;;;;6.22;2.03;;;10.20;99.90;;;;;;4847580;29;20044;-76
2022/10/20 00:44:45;;;;;;;6.88;2.30;;;10.10;99.90;;;;;;4863932;29;20052;-75
2022/10/20 00:47:15;;;;;;;8.20;2.50;;;10.10;99.90;;;;;;4847477;29;20471;-76
2022/10/20 00:49:41;;;;;;;5.40;2.35;;;10.00;99.90;;;;;;4863955;29;20061;-75
2022/10/20 00:52:06;;;;;;;;;;;10.00;99.90;;;;;;4847654;29;20029;-74
2022/10/20 00:54:32;;;;;;;6.53;2.30;;;10.10;99.90;;;;;;4863341;29;19908;-75
2022/10/20 00:56:58;;;;;;;;;;;10.00;99.90;;;;;;4847804;29;20141;-75
2022/10/20 00:59:31;;;;;;;6.65;2.60;;;10.00;99.90;;;;;;4847341;29;20011;-75
2022/10/20 01:02:00;;;;;;;5.75;2.67;;;9.90;99.90;;;;;;4863352;29;20026;-76
2022/10/20 01:04:28;;;;;;;4.40;2.55;;;9.90;99.90;;;;;;4862807;29;20045;-75
2022/10/20 01:06:54;;;;;;;7.63;2.38;;;9.80;99.90;;;;;;4863403;29;20488;-75
2022/10/20 01:09:19;;;;;;;;;;;9.80;99.90;;;;;;4847621;29;20037;-75
2022/10/20 01:11:57;;;;;;;7.43;2.63;;;9.80;99.90;;;;;;4847032;29;19908;-76
2022/10/20 01:15:00;;;;;;;4.38;2.30;;;9.70;99.90;;;;;;4846573;29;20054;-76
2022/10/20 01:17:40;;;;;;;9.98;2.58;;;9.60;99.90;;;;;;4846423;29;20101;-75
2022/10/20 01:20:31;;;;;;;7.22;3.17;;;9.60;99.90;;;;;;4861290;29;20065;-75
2022/10/20 01:23:11;;;;;;;6.85;3.08;;;9.50;99.90;;;;;;4842537;29;20038;-75
2022/10/20 01:25:49;;;;;;;5.72;2.88;;;9.50;99.90;;;;;;4826281;29;20067;-75
2022/10/20 01:28:43;;;;;;;7.47;2.15;;;9.50;99.90;;;;;;4826486;29;20112;-75
2022/10/20 01:31:27;;;;;;;5.95;2.30;;;9.40;99.90;;;;;;4826322;29;20050;-75
2022/10/20 01:34:07;;;;;;;5.28;2.30;;;9.40;99.90;;;;;;4841221;29;20066;-75
2022/10/20 01:36:36;;;;;;;5.05;2.15;;;9.40;99.90;;;;;;4859992;29;20038;-74
2022/10/20 01:39:15;;;;;;;5.55;2.00;;;9.40;99.90;;;;;;4859632;29;20037;-75
2022/10/20 01:42:12;;;;;;;9.07;3.60;;;9.40;99.90;;;;;;4842983;29;20025;-74
2022/10/20 01:44:41;;;;;;;7.83;3.00;;;9.40;99.90;;;;;;4847855;29;20041;-75
2022/10/20 01:47:08;;;;;;;5.97;2.33;;;9.30;99.90;;;;;;4843805;29;20414;-75
2022/10/20 01:49:34;;;;;;;7.30;2.10;;;9.30;99.90;;;;;;4859542;29;20128;-74
2022/10/20 01:51:59;;;;;;;;;;;9.20;99.90;;;;;;4843296;29;20125;-74
2022/10/20 01:54:29;;;;;;;6.63;1.88;;;9.20;99.90;;;;;;4859521;29;19915;-74
2022/10/20 01:57:24;;;;;;;2.78;1.23;;;9.10;99.90;;;;;;4843644;29;20025;-75
2022/10/20 02:00:11;;;;;;;3.55;1.38;;;9.10;99.90;;;;;;4835478;29;20045;-75
2022/10/20 02:02:49;;;;;;;4.10;1.17;;;8.90;99.90;;;;;;4843413;29;20409;-74
2022/10/20 02:05:50;;;;;;;4.22;1.95;;;8.90;99.90;;;;;;4842604;29;20048;-74
2022/10/20 02:08:25;;;;;;;4.45;1.70;;;8.80;99.90;;;;;;4842184;29;20563;-75
2022/10/20 02:10:55;;;;;;;4.90;2.35;;;8.70;99.90;;;;;;4859680;29;20026;-74
2022/10/20 02:13:22;;;;;;;6.95;3.20;;;8.60;99.90;;;;;;4842931;29;20048;-74
2022/10/20 02:15:52;;;;;;;7.95;3.25;;;8.70;99.90;;;;;;4843093;29;20455;-76
2022/10/20 02:18:23;;;;;;;6.13;2.22;;;8.60;99.90;;;;;;4842499;29;20037;-74
2022/10/20 02:20:51;;;;;;;6.78;2.67;;;8.60;99.90;;;;;;4859705;29;20022;-75
2022/10/20 02:23:17;;;;;;;6.70;2.20;;;8.60;99.90;;;;;;4843301;29;20038;-75
2022/10/20 02:25:43;;;;;;;;;;;8.50;99.90;;;;;;4860722;29;20045;-75
2022/10/20 02:28:12;;;;;;;6.35;1.70;;;8.50;99.90;;;;;;4860072;29;19923;-74
2022/10/20 02:30:39;;;;;;;5.22;1.70;;;8.40;99.90;;;;;;4860123;29;20104;-75
2022/10/20 02:33:06;;;;;;;2.90;1.20;;;8.40;99.90;;;;;;4859182;29;20128;-74
2022/10/20 02:35:33;;;;;;;2.92;1.00;;;8.30;99.90;;;;;;4859725;29;20025;-74
2022/10/20 02:38:00;;;;;;;2.17;1.00;;;8.30;99.90;;;;;;4859908;29;20116;-75
2022/10/20 02:40:26;;;;;;;3.35;1.08;;;8.20;99.90;;;;;;4842451;29;20458;-75
2022/10/20 02:42:52;;;;;;;4.45;1.33;;;8.10;99.90;;;;;;4842865;29;20046;-75
2022/10/20 02:45:17;;;;;;;;;;;8.10;99.90;;;;;;4843797;29;20037;-76
2022/10/20 02:47:43;;;;;;;5.25;1.25;;;8.10;99.90;;;;;;4843143;29;20351;-75
2022/10/20 02:50:09;;;;;;;2.55;1.00;;;8.10;99.90;;;;;;4843068;29;20068;-75
2022/10/20 02:52:35;;;;;;;;;;;8.20;99.90;;;;;;4860070;29;20029;-74
2022/10/20 02:55:01;;;;;;;3.80;1.05;;;8.20;99.90;;;;;;4843232;29;20019;-75
2022/10/20 02:57:26;;;;;;;;;;;8.20;99.90;;;;;;4860741;29;20085;-75
2022/10/20 02:59:52;;;;;;;2.30;1.15;;;8.20;99.90;;;;;;4843293;29;19968;-74
2022/10/20 03:02:18;;;;;;;;;;;8.20;99.90;;;;;;4842449;29;20033;-74
2022/10/20 03:04:44;;;;;;;4.20;1.55;;;8.20;99.90;;;;;;4842250;29;19924;-75
2022/10/20 03:07:09;;;;;;;;;;;8.10;99.90;;;;;;4842793;29;20034;-75
2022/10/20 03:09:35;;;;;;;6.07;2.10;;;8.00;99.90;;;;;;4858458;29;19912;-75
2022/10/20 03:12:01;;;;;;;9.27;3.35;;;8.00;99.90;;;;;;4842553;29;20037;-75
2022/10/20 03:14:27;;;;;;;;;;;8.00;99.90;;;;;;4859052;29;20533;-75
2022/10/20 03:16:52;;;;;;;12.48;3.08;;;8.10;99.90;;;;;;4841808;29;19912;-75
2022/10/20 03:19:18;;;;;;;;;;;7.90;99.90;;;;;;4841927;29;20041;-75
2022/10/20 03:21:45;;;;;;;4.72;2.13;;;7.90;99.90;;;;;;4858164;29;20378;-74
2022/10/20 03:24:10;;;;;;;11.40;2.60;;;7.80;99.90;;;;;;4841627;29;20044;-75
2022/10/20 03:26:36;;;;;;;;;;;7.90;99.90;;;;;;4857900;29;20041;-75
2022/10/20 03:29:01;;;;;;;9.40;2.22;;;7.90;99.90;;;;;;4857768;29;20411;-75
2022/10/20 03:31:27;;;;;;;;;;;7.80;99.90;;;;;;4856546;29;20039;-75
2022/10/20 03:33:53;;;;;;;6.22;2.25;;;7.80;99.90;;;;;;4856434;29;19912;-75
2022/10/20 03:36:18;;;;;;;;;;;7.70;99.90;;;;;;4841206;29;20037;-75
2022/10/20 03:38:44;;;;;;;4.85;1.83;;;7.70;99.90;;;;;;4856940;29;20068;-75
2022/10/20 03:41:10;;;;;;;;;;;7.70;99.90;;;;;;4841811;29;20029;-75
2022/10/20 03:43:37;;;;;;;7.05;2.17;;;7.70;99.90;;;;;;4857802;29;19926;-75
2022/10/20 03:46:07;;;;;;;5.47;2.30;;;7.70;99.90;;;;;;4858291;29;20041;-75
2022/10/20 03:48:33;;;;;;;7.10;3.20;;;7.70;99.90;;;;;;4857619;29;20695;-74
2022/10/20 03:50:59;;;;;;;;;;;7.70;99.90;;;;;;4841315;29;20021;-75
2022/10/20 03:53:25;;;;;;;14.70;3.92;;;7.60;99.90;;;;;;4858070;29;19908;-74
2022/10/20 03:55:50;;;;;;;;;;;7.70;99.90;;;;;;4840983;29;20033;-74
2022/10/20 03:58:16;;;;;;;8.88;4.18;;;7.70;99.90;;;;;;4857705;29;20698;-75
2022/10/20 04:00:41;;;;;;;;;;;7.70;99.90;;;;;;4858066;29;20047;-74
2022/10/20 04:03:07;;;;;;;10.50;4.07;;;7.70;99.90;;;;;;4857696;29;19912;-74
2022/10/20 04:05:33;;;;;;;11.20;3.97;;;7.70;99.90;;;;;;4857495;29;20102;-75
2022/10/20 04:07:58;;;;;;;;;;;7.70;99.90;;;;;;4857782;29;20115;-75
2022/10/20 04:10:24;;;;;;;11.30;4.53;;;7.70;99.90;;;;;;4841467;29;19915;-75
2022/10/20 04:12:49;;;;;;;17.10;6.43;;;7.60;99.90;;;;;;4857982;29;20032;-74
2022/10/20 04:15:17;;;;;;;12.55;3.60;;;7.70;99.90;;;;;;4858154;29;20038;-75
2022/10/20 04:17:43;;;;;;;5.15;2.00;;;7.60;99.90;;;;;;4841475;29;20026;-75
2022/10/20 04:20:08;;;;;;;;;;;7.60;99.90;;;;;;4842051;29;20117;-75
2022/10/20 04:22:34;;;;;;;10.50;2.42;;;7.60;99.90;;;;;;4857873;29;19915;-76
2022/10/20 04:25:00;;;;;;;;;;;7.60;99.90;;;;;;4841917;29;20045;-75
2022/10/20 04:27:26;;;;;;;5.03;1.85;;;7.60;99.90;;;;;;4858050;29;19916;-76
2022/10/20 04:29:52;;;;;;;4.95;2.17;;;7.60;99.90;;;;;;4858353;29;20032;-75
2022/10/20 04:32:17;;;;;;;;;;;7.50;99.90;;;;;;4841927;29;20378;-75
2022/10/20 04:34:43;;;;;;;7.57;2.22;;;7.60;99.90;;;;;;4841679;29;20355;-75
2022/10/20 04:37:08;;;;;;;3.67;1.85;;;7.50;99.90;;;;;;4858161;29;20025;-75
2022/10/20 04:39:34;;;;;;;;;;;7.50;99.90;;;;;;4840998;29;20109;-75
2022/10/20 04:41:59;;;;;;;6.07;2.05;;;7.50;99.90;;;;;;4857425;29;20473;-75
2022/10/20 04:44:25;;;;;;;;;;;7.40;99.90;;;;;;4841335;29;20042;-75
2022/10/20 04:46:53;;;;;;;5.03;1.83;;;7.30;99.90;;;;;;4842146;29;20003;-75
2022/10/20 04:49:18;;;;;;;5.80;1.90;;;7.20;99.90;;;;;;4857995;29;20140;-75
2022/10/20 04:51:44;;;;;;;;;;;7.30;99.90;;;;;;4841815;29;20137;-74
2022/10/20 04:54:09;;;;;;;7.60;1.80;;;7.20;99.90;;;;;;4842664;29;20514;-75
2022/10/20 04:56:35;;;;;;;10.82;2.15;;;7.20;99.90;;;;;;4861411;29;20063;-75
2022/10/20 04:59:01;;;;;;;;;;;7.20;99.90;;;;;;4861962;29;20037;-75
2022/10/20 05:01:29;;;;;;;4.30;1.83;;;7.10;99.90;;;;;;4844324;29;19912;-75
2022/10/20 05:03:54;;;;;;;11.23;2.47;;;7.10;99.90;;;;;;4861305;29;20076;-75
2022/10/20 05:06:21;;;;;;;;;;;7.10;99.90;;;;;;4861402;29;20061;-75
2022/10/20 05:08:50;;;;;;;11.73;2.60;;;7.00;99.90;;;;;;4844480;29;20390;-75
2022/10/20 05:11:17;;;;;;;9.73;2.85;;;7.00;99.90;;;;;;4861433;29;20282;-76
2022/10/20 05:13:43;;;;;;;4.47;2.30;;;6.90;99.90;;;;;;4844975;29;20571;-75
2022/10/20 05:16:09;;;;;;;;;;;6.90;99.90;;;;;;4862264;29;20032;-75
2022/10/20 05:18:34;;;;;;;3.78;2.10;;;6.90;99.90;;;;;;4861998;29;20011;-76
2022/10/20 05:21:07;;;;;;;;;;;6.90;99.90;;;;;;4846560;29;20036;-76
2022/10/20 05:23:33;;;;;;;6.93;2.45;;;6.90;99.90;;;;;;4843801;29;19916;-75
2022/10/20 05:26:05;;;;;;;;;;;6.80;99.90;;;;;;4861009;29;20044;-75
2022/10/20 05:28:31;;;;;;;7.63;2.38;;;6.80;99.90;;;;;;4844021;29;20003;-75
2022/10/20 05:31:00;;;;;;;;;;;6.80;99.90;;;;;;4844156;29;20125;-75
2022/10/20 05:33:26;;;;;;;6.45;2.90;;;6.70;99.90;;;;;;4840875;29;19923;-75
2022/10/20 05:35:51;;;;;;;;;;;6.70;99.90;;;;;;4860839;29;20042;-75
2022/10/20 05:38:17;;;;;;;21.52;5.22;;;6.70;99.90;;;;;;4843459;29;19908;-75
2022/10/20 05:40:42;;;;;;;37.88;6.30;;;6.60;99.90;;;;;;4860176;29;20029;-75
2022/10/20 05:43:08;;;;;;;;;;;6.70;99.90;;;;;;4843716;29;20124;-75
2022/10/20 05:45:33;;;;;;;44.85;7.25;;;6.60;99.90;;;;;;4843317;29;19916;-75
2022/10/20 05:47:59;;;;;;;;;;;6.70;99.90;;;;;;4843023;29;20116;-75
2022/10/20 05:50:24;;;;;;;16.00;3.95;;;6.70;99.90;;;;;;4859947;29;19966;-74
2022/10/20 05:52:50;;;;;;;;;;;6.70;99.90;;;;;;4843401;29;20053;-75
2022/10/20 05:55:17;;;;;;;22.67;9.25;;;6.80;99.90;;;;;;4860336;29;19923;-75
2022/10/20 05:57:42;;;;;;;;;;;6.80;99.90;;;;;;4843677;29;20456;-75
2022/10/20 06:00:09;;;;;;;30.17;16.70;;;6.90;99.90;;;;;;4843740;29;19995;-75
2022/10/20 06:02:34;;;;;;;46.97;25.70;;;7.00;99.90;;;;;;4860207;29;20029;-75
2022/10/20 06:05:00;;;;;;;;;;;7.10;99.90;;;;;;4860363;29;20500;-75
2022/10/20 06:07:25;;;;;;;20.35;5.03;;;7.20;99.90;;;;;;4843782;29;19999;-75
2022/10/20 06:09:51;;;;;;;;;;;7.30;99.90;;;;;;4860672;29;20403;-75
2022/10/20 06:12:16;;;;;;;9.05;3.80;;;7.50;99.90;;;;;;4842907;29;19919;-75
2022/10/20 06:14:42;;;;;;;7.80;3.53;;;7.70;99.90;;;;;;4843485;29;20515;-76
2022/10/20 06:17:08;;;;;;;;;;;8.10;99.90;;;;;;4860610;29;20037;-76
2022/10/20 06:19:33;;;;;;;13.52;3.42;;;8.40;99.90;;;;;;4860174;29;20389;-76
2022/10/20 06:21:59;;;;;;;;;;;8.90;99.90;;;;;;4843646;29;20029;-76
2022/10/20 06:24:24;;;;;;;11.13;3.65;;;9.30;99.90;;;;;;4860221;29;19922;-75
2022/10/20 06:26:50;;;;;;;;;;;9.80;99.90;;;;;;4859432;29;20104;-75
2022/10/20 06:29:17;;;;;;;7.35;3.67;;;10.40;99.90;;;;;;4859754;29;20416;-76
2022/10/20 06:31:46;;;;;;;6.38;3.42;;;10.90;99.90;;;;;;4842060;29;20062;-76
2022/10/20 06:34:17;;;;;;;10.52;2.97;;;11.60;99.90;;;;;;4842636;29;20033;-75
2022/10/20 06:36:44;;;;;;;16.50;3.10;;;12.30;99.90;;;;;;4859043;29;20510;-76
2022/10/20 06:39:12;;;;;;;6.05;2.80;;;13.00;99.90;;;;;;4859050;29;20029;-75
2022/10/20 06:41:38;;;;;;;3.85;1.83;;;13.40;99.90;;;;;;4842160;29;20066;-76
2022/10/20 06:44:04;;;;;;;;;;;13.90;99.90;;;;;;4842513;29;20058;-76
2022/10/20 06:46:31;;;;;;;7.75;2.13;;;14.30;99.90;;;;;;4842128;29;20351;-76
2022/10/20 06:49:02;;;;;;;6.78;1.85;;;14.50;99.90;;;;;;4858649;29;20094;-76
2022/10/20 06:51:28;;;;;;;7.82;1.40;;;14.70;99.50;;;;;;4842639;29;20048;-75
2022/10/20 06:53:54;;;;;;;4.35;1.38;;;14.60;99.70;;;;;;4858995;29;20038;-76
2022/10/20 06:56:24;;;;;;;8.60;1.85;;;14.60;99.80;;;;;;4859073;29;20105;-76
2022/10/20 06:58:52;;;;;;;3.88;2.40;;;14.70;99.50;;;;;;4858811;29;20033;-76
2022/10/20 07:01:24;;;;;;;5.70;2.17;;;14.70;98.80;;;;;;4842148;29;20033;-75
2022/10/20 07:03:52;;;;;;;6.35;2.50;;;14.90;97.80;;;;;;4859597;29;20034;-75
2022/10/20 07:06:21;;;;;;;8.70;3.45;;;14.90;97.50;;;;;;4842238;29;20037;-75
2022/10/20 07:08:47;;;;;;;7.07;2.83;;;14.70;97.50;;;;;;4858706;29;20471;-75
2022/10/20 07:11:15;;;;;;;11.07;3.97;;;14.40;97.70;;;;;;4858949;29;20085;-75
2022/10/20 07:13:41;;;;;;;8.07;3.05;;;14.20;98.20;;;;;;4841903;29;20036;-75
2022/10/20 07:16:10;;;;;;;10.13;2.80;;;13.90;98.20;;;;;;4841646;29;20414;-75
2022/10/20 07:18:36;;;;;;;6.40;2.95;;;13.70;98.90;;;;;;4841884;29;20048;-76
2022/10/20 07:21:03;;;;;;;;;;;13.50;99.40;;;;;;4859454;29;20029;-76
2022/10/20 07:23:30;;;;;;;;;;;13.50;99.80;;;;;;4842192;29;19916;-76
2022/10/20 07:26:04;;;;;;;14.07;3.45;;;13.50;99.60;;;;;;4858346;29;19966;-76
2022/10/20 07:28:30;;;;;;;12.63;3.05;;;13.50;99.90;;;;;;4858234;29;20460;-75
2022/10/20 07:30:56;;;;;;;8.57;3.20;;;13.50;99.80;;;;;;4859210;29;20094;-76
2022/10/20 07:33:21;;;;;;;;;;;13.50;99.80;;;;;;4842993;29;20042;-76
2022/10/20 07:35:48;;;;;;;7.43;3.92;;;13.60;99.40;;;;;;4858507;29;19912;-75
2022/10/20 07:38:14;;;;;;;10.45;3.00;;;13.30;99.50;;;;;;4857505;29;20032;-75
2022/10/20 07:40:40;;;;;;;;;;;13.20;99.90;;;;;;4843412;29;20037;-76
2022/10/20 07:43:05;;;;;;;7.97;3.47;;;13.10;99.90;;;;;;4859372;29;19908;-76
2022/10/20 07:45:31;;;;;;;;;;;13.10;99.90;;;;;;4841933;29;20045;-76
2022/10/20 07:47:58;;;;;;;7.90;3.42;;;13.00;99.90;;;;;;4841511;29;19916;-76
2022/10/20 07:50:24;;;;;;;10.35;3.63;;;13.00;99.90;;;;;;4858032;29;20045;-76
2022/10/20 07:52:53;;;;;;;12.82;4.00;;;13.00;99.90;;;;;;4841237;29;20037;-75
2022/10/20 07:55:19;;;;;;;5.57;3.10;;;13.20;99.90;;;;;;4857899;29;20033;-75
2022/10/20 07:57:44;;;;;;;;;;;13.40;99.90;;;;;;4858609;29;20040;-75
2022/10/20 08:00:11;;;;;;;12.55;2.67;;;13.50;99.90;;;;;;4841310;29;19912;-76
2022/10/20 08:02:36;;;;;;;6.93;2.67;;;13.50;99.90;;;;;;4857173;29;20090;-75
2022/10/20 08:05:02;;;;;;;;;;;13.70;99.90;;;;;;4840967;29;20045;-76
2022/10/20 08:07:27;;;;;;;8.93;2.85;;;14.00;99.90;;;;;;4839896;29;19914;-76
2022/10/20 08:09:53;;;;;;;;;;;14.30;99.70;;;;;;4857358;29;20079;-76
2022/10/20 08:12:19;;;;;;;8.63;2.40;;;14.80;98.90;;;;;;4840246;29;19919;-75
2022/10/20 08:14:44;;;;;;;;;;;15.30;98.40;;;;;;4857361;29;20990;-76
2022/10/20 08:17:10;;;;;;;9.95;3.95;;;15.90;96.90;;;;;;4840270;29;19950;-77
2022/10/20 08:19:35;;;;;;;5.47;2.08;;;16.50;95.90;;;;;;4839772;29;20183;-79
2022/10/20 08:22:01;;;;;;;4.55;2.00;;;17.00;94.20;;;;;;4856368;29;20492;-79
2022/10/20 08:24:27;;;;;;;5.93;1.90;;;17.40;92.70;;;;;;4856033;29;20041;-79
2022/10/20 08:26:54;;;;;;;8.85;1.73;;;17.90;91.60;;;;;;4856285;29;20089;-84
2022/10/20 08:29:19;;;;;;;17.95;2.15;;;18.40;90.20;;;;;;4859064;29;20026;-83
2022/10/20 08:31:45;;;;;;;2.88;1.50;;;18.80;87.20;;;;;;4843334;29;20399;-81
2022/10/20 08:34:11;;;;;;;3.33;1.50;;;19.30;82.40;;;;;;4843362;29;20025;-84
2022/10/20 08:36:36;;;;;;;6.50;1.73;;;19.60;79.60;;;;;;4859681;29;20135;-82
2022/10/20 08:39:02;;;;;;;6.38;2.05;;;19.80;76.80;;;;;;4843251;29;20029;-84
2022/10/20 08:41:32;;;;;;;6.95;2.13;;;19.80;75.90;;;;;;4859584;29;20038;-83
2022/10/20 08:44:01;;;;;;;3.70;1.67;;;20.00;74.50;;;;;;4859737;29;20680;-84
2022/10/20 08:46:31;;;;;;;4.18;1.65;;;20.20;71.50;;;;;;4859432;29;20045;-82
2022/10/20 08:48:57;;;;;;;9.32;1.58;;;20.30;71.00;;;;;;4859491;29;20130;-82
2022/10/20 08:51:26;;;;;;;6.95;1.60;;;20.30;70.20;;;;;;4859583;29;20040;-82
2022/10/20 08:53:56;;;;;;;3.83;1.08;;;20.30;69.30;;;;;;4842878;29;20033;-83
2022/10/20 08:56:24;;;;;;;3.90;1.27;;;20.40;68.00;;;;;;4859221;29;20058;-82
2022/10/20 08:58:49;;;;;;;7.22;1.85;;;19.80;67.70;;;;;;4842725;29;20410;-83
2022/10/20 09:01:32;;;;;;;3.33;1.48;;;19.60;67.50;;;;;;4859030;29;20029;-81
2022/10/20 09:04:19;;;;;;;3.00;1.20;;;19.70;68.20;;;;;;4859160;29;20033;-83
2022/10/20 09:06:50;;;;;;;8.50;1.52;;;19.70;67.00;;;;;;4842476;29;20038;-83
2022/10/20 09:09:18;;;;;;;6.10;1.88;;;19.70;68.10;;;;;;4842759;29;20045;-83
2022/10/20 09:11:44;;;;;;;4.75;1.25;;;19.80;68.20;;;;;;4842359;29;20025;-83
2022/10/20 09:14:11;;;;;;;4.03;1.80;;;20.00;66.60;;;;;;4842559;29;20495;-81
2022/10/20 09:16:39;;;;;;;6.90;2.17;;;20.60;66.60;;;;;;4858955;29;20101;-81
2022/10/20 09:19:13;;;;;;;12.68;2.92;;;21.10;64.90;;;;;;4859104;29;20029;-77
2022/10/20 09:21:40;;;;;;;7.22;1.60;;;21.10;63.20;;;;;;4859094;29;20029;-80
2022/10/20 09:24:06;;;;;;;3.35;1.42;;;21.20;62.30;;;;;;4857403;29;20049;-81
2022/10/20 09:26:41;;;;;;;7.05;1.58;;;21.50;61.20;;;;;;4857473;29;20088;-81
2022/10/20 09:29:10;;;;;;;4.97;1.65;;;21.40;59.70;;;;;;4842420;29;20482;-80
2022/10/20 09:31:49;;;;;;;4.30;2.28;;;21.30;60.00;;;;;;4842322;29;20073;-80
2022/10/20 09:34:25;;;;;;;3.95;1.75;;;21.30;58.90;;;;;;4842297;29;20038;-79
2022/10/20 09:37:05;;;;;;;6.20;1.45;;;21.10;57.90;;;;;;4842112;29;20157;-82
2022/10/20 09:39:54;;;;;;;3.75;1.65;;;20.80;58.70;;;;;;4857851;29;20410;-83
2022/10/20 09:42:33;;;;;;;8.25;2.15;;;20.80;59.10;;;;;;4858501;29;20085;-82
2022/10/20 09:45:30;;;;;;;2.90;1.23;;;20.90;59.60;;;;;;4858403;29;20101;-82
2022/10/20 09:48:02;;;;;;;2.00;1.02;;;21.10;59.00;;;;;;4852394;29;20042;-79
2022/10/20 09:50:39;;;;;;;2.65;0.95;;;21.10;58.30;;;;;;4858519;29;20167;-82
2022/10/20 09:53:16;;;;;;;2.80;1.17;;;20.40;58.20;;;;;;4841958;29;20482;-81
2022/10/20 09:55:46;;;;;;;3.83;1.33;;;19.50;59.50;;;;;;4858451;29;20037;-80
2022/10/20 09:58:32;;;;;;;3.42;1.05;;;18.80;60.90;;;;;;4858408;29;20029;-75
2022/10/20 10:01:03;;;;;;;2.33;1.08;;;18.10;63.20;;;;;;4843614;29;20041;-75
2022/10/20 10:03:44;;;;;;;4.50;1.42;;;17.40;64.20;;;;;;4859861;29;20198;-74
2022/10/20 10:06:42;;;;;;;3.72;1.20;;;17.00;66.70;;;;;;4858713;29;20025;-75
2022/10/20 10:09:29;;;;;;;4.28;1.20;;;16.80;66.80;;;;;;4831242;29;20049;-75
2022/10/20 10:12:02;;;;;;;3.65;1.08;;;16.60;70.00;;;;;;4858763;29;20651;-74
2022/10/20 10:14:29;;;;;;;2.50;1.23;;;16.40;69.50;;;;;;4859029;29;20026;-74
2022/10/20 10:16:55;;;;;;;3.40;1.23;;;16.20;70.20;;;;;;4858726;29;20121;-74
2022/10/20 10:19:28;;;;;;;3.25;1.10;;;16.00;72.10;;;;;;4842227;29;20607;-75
2022/10/20 10:22:00;;;;;;;8.07;1.60;;;15.90;73.50;;;;;;4859205;29;20483;-74
2022/10/20 10:24:32;;;;;;;4.38;1.05;;;15.80;73.60;;;;;;4841726;29;20090;-74
2022/10/20 10:26:58;;;;;;;4.55;1.30;;;15.70;74.10;;;;;;4842109;29;20097;-75
2022/10/20 10:29:30;;;;;;;7.25;1.20;;;15.70;74.20;;;;;;4858802;29;20030;-74
2022/10/20 10:32:15;;;;;;;3.72;1.20;;;15.60;74.80;;;;;;4842199;29;20029;-74
2022/10/20 10:35:07;;;;;;;6.30;1.45;;;15.60;75.70;;;;;;4841346;29;20512;-74
2022/10/20 10:37:33;;;;;;;9.93;1.60;;;15.50;76.50;;;;;;4858455;29;20123;-74
2022/10/20 10:40:04;;;;;;;4.78;1.58;;;15.50;77.30;;;;;;4858612;29;20071;-75
2022/10/20 10:42:48;;;;;;;6.03;1.67;;;15.50;77.00;;;;;;4841560;29;20041;-74
2022/10/20 10:45:18;;;;;;;6.00;1.60;;;15.40;78.00;;;;;;4841385;29;20068;-75
2022/10/20 10:48:22;;;;;;;6.60;2.10;;;15.20;78.90;;;;;;4841497;29;20388;-74
2022/10/20 10:50:53;;;;;;;8.15;1.83;;;15.20;77.00;;;;;;4858444;29;20427;-74
2022/10/20 10:53:33;;;;;;;3.55;1.50;;;14.80;77.90;;;;;;4841691;29;20660;-74
2022/10/20 10:56:39;;;;;;;3.33;1.38;;;14.70;79.50;;;;;;4858392;29;20085;-74
2022/10/20 10:59:07;;;;;;;5.65;1.58;;;14.70;81.60;;;;;;4841570;29;20034;-75
2022/10/20 11:02:02;;;;;;;4.70;1.30;;;14.70;82.50;;;;;;4857938;29;20025;-74
2022/10/20 11:04:31;;;;;;;3.70;1.73;;;14.90;83.20;;;;;;4841096;29;20063;-74
2022/10/20 11:07:11;;;;;;;7.60;1.50;;;15.00;83.00;;;;;;4841291;29;20033;-75
2022/10/20 11:09:58;;;;;;;4.18;1.30;;;15.00;83.30;;;;;;4857775;29;20037;-74
2022/10/20 11:12:51;;;;;;;4.97;1.65;;;15.10;82.70;;;;;;4841353;29;20136;-74
2022/10/20 11:15:29;;;;;;;6.40;1.77;;;15.10;83.00;;;;;;4857813;29;20036;-74
2022/10/20 11:18:11;;;;;;;3.25;1.20;;;15.20;82.30;;;;;;4842448;29;20089;-74
2022/10/20 11:20:58;;;;;;;4.30;1.27;;;15.20;83.30;;;;;;4857560;29;20037;-74
2022/10/20 11:23:51;;;;;;;3.42;1.15;;;15.20;82.90;;;;;;4841019;29;20530;-75
2022/10/20 11:26:25;;;;;;;2.45;1.42;;;15.40;83.10;;;;;;4857823;29;20041;-75
2022/10/20 11:28:54;;;;;;;2.60;1.10;;;15.50;82.60;;;;;;4841619;29;20566;-75
2022/10/20 11:31:41;;;;;;;11.25;2.22;;;15.60;82.90;;;;;;4841282;29;20029;-74
2022/10/20 11:34:13;;;;;;;;;;;15.70;81.50;;;;;;4858363;29;20045;-74
2022/10/20 11:37:00;;;;;;;7.85;1.73;;;15.80;81.80;;;;;;4858003;29;19912;-74
2022/10/20 11:39:35;;;;;;;6.25;1.10;;;15.90;81.60;;;;;;4857838;29;20076;-74
2022/10/20 11:42:26;;;;;;;3.70;1.40;;;16.20;81.90;;;;;;4841453;29;20066;-74
2022/10/20 11:44:55;;;;;;;3.25;1.20;;;16.40;81.30;;;;;;4857674;29;20052;-74
2022/10/20 11:47:36;;;;;;;3.08;1.20;;;16.40;80.50;;;;;;4857189;29;20474;-75
2022/10/20 11:50:09;;;;;;;6.50;1.20;;;16.50;79.80;;;;;;4852482;29;20132;-75
2022/10/20 11:53:27;;;;;;;4.40;1.30;;;16.60;77.60;;;;;;4857126;29;20452;-75
2022/10/20 11:56:12;;;;;;;8.73;1.50;;;16.60;79.10;;;;;;4855152;29;20038;-74
2022/10/20 11:59:13;;;;;;;2.72;0.73;;;16.70;78.90;;;;;;4840593;29;20029;-74
2022/10/20 12:02:17;;;;;;;2.47;1.02;;;16.60;79.10;;;;;;4857581;29;20389;-75
2022/10/20 12:05:16;;;;;;;4.15;1.42;;;16.60;78.80;;;;;;4856983;29;20041;-75
2022/10/20 12:08:08;;;;;;;8.70;1.08;;;16.60;79.40;;;;;;4840715;29;20086;-75
2022/10/20 12:10:42;;;;;;;3.30;1.83;;;16.60;79.40;;;;;;4857708;29;20059;-75
2022/10/20 12:13:45;;;;;;;6.40;1.58;;;16.60;79.50;;;;;;4857431;29;20373;-74
2022/10/20 12:16:11;;;;;;;2.38;1.05;;;16.60;78.90;;;;;;4857844;29;20026;-75
2022/10/20 12:18:37;;;;;;;3.92;1.48;;;16.50;79.60;;;;;;4840834;29;20041;-74
2022/10/20 12:21:09;;;;;;;3.45;1.17;;;16.60;79.70;;;;;;4840805;29;20108;-75
2022/10/20 12:23:51;;;;;;;6.22;1.33;;;16.70;79.60;;;;;;4858301;29;20041;-75
2022/10/20 12:26:29;;;;;;;5.38;1.17;;;16.80;78.60;;;;;;4857279;29;20039;-74
2022/10/20 12:28:59;;;;;;;7.13;1.90;;;17.10;78.90;;;;;;4840142;29;20036;-74
2022/10/20 12:32:04;;;;;;;3.65;1.33;;;17.20;78.00;;;;;;4856556;29;20043;-74
2022/10/20 12:34:38;;;;;;;3.90;1.20;;;17.30;76.30;;;;;;4855120;29;20464;-74
2022/10/20 12:37:15;;;;;;;7.80;1.27;;;17.30;76.40;;;;;;4839856;29;20034;-75
2022/10/20 12:39:41;;;;;;;7.05;1.55;;;17.40;76.90;;;;;;4856561;29;20030;-74
2022/10/20 12:42:19;;;;;;;5.25;1.33;;;17.40;77.60;;;;;;4839586;29;20048;-75
2022/10/20 12:44:45;;;;;;;5.07;1.52;;;17.50;77.00;;;;;;4839865;29;20045;-74
2022/10/20 12:47:21;;;;;;;4.07;1.30;;;17.40;76.90;;;;;;4839719;29;20082;-75
2022/10/20 12:50:07;;;;;;;5.10;1.57;;;17.30;77.20;;;;;;4854662;29;20057;-74
2022/10/20 12:52:38;;;;;;;19.45;1.77;;;17.20;77.20;;;;;;4839305;29;20144;-74
2022/10/20 12:55:12;;;;;;;2.65;0.90;;;17.10;77.40;;;;;;4856308;29;20025;-74
2022/10/20 12:57:43;;;;;;;4.13;1.42;;;17.00;78.10;;;;;;4840021;29;20029;-74
2022/10/20 13:00:18;;;;;;;3.25;1.40;;;16.70;78.30;;;;;;4856673;29;20052;-75
2022/10/20 13:02:55;;;;;;;4.32;1.50;;;16.50;78.50;;;;;;4839826;29;20084;-74
2022/10/20 13:05:41;;;;;;;4.22;1.15;;;16.30;80.30;;;;;;4856306;29;20102;-75
2022/10/20 13:08:23;;;;;;;3.42;1.50;;;16.10;81.20;;;;;;4840226;29;20177;-74
2022/10/20 13:10:52;;;;;;;3.50;1.02;;;16.00;82.10;;;;;;4834859;29;20579;-74
2022/10/20 13:13:18;;;;;;;4.57;1.40;;;15.80;82.30;;;;;;4849153;29;20517;-74
2022/10/20 13:15:49;;;;;;;;;;;15.50;83.00;;;;;;4842425;29;20033;-74
2022/10/20 13:18:16;;;;;;;4.63;1.30;;;15.30;83.90;;;;;;4843614;29;19919;-75
2022/10/20 13:20:59;;;;;;;3.92;1.30;;;15.20;84.60;;;;;;4866296;29;20033;-74
2022/10/20 13:23:42;;;;;;;3.53;1.13;;;15.10;84.80;;;;;;4877045;29;20057;-75
2022/10/20 13:26:30;;;;;;;2.65;1.50;;;15.20;84.80;;;;;;4852495;29;20034;-74